Terminal Aerodrome Forecast
Issued by NWS Sioux Falls, SD

Home | Current Version | Previous Version | Text Only | Print | Product List | Glossary On
Versions: 1 2 3 4 5 6 7 8 9 10 11 12 13 14 15 16 17 18 19
823
FTUS43 KFSD 211120
TAFFSD
TAF
KFSD 211120Z 2112/2212 17008KT P6SM FEW250
     FM211900 12007KT P6SM FEW070
     FM220200 09006KT P6SM SCT080 BKN250=

USA.gov is the U.S. government's official web portal to all federal, state and local government web resources and services.